sensor_id;sensor_type;location;lat;lon;timestamp;pressure;altitude;pressure_sealevel;temperature;humidity
55755;BME280;41674;52.290;-1.474;2023-02-19T00:01:14;101591.49;;;7.00;91.35
55755;BME280;41674;52.290;-1.474;2023-02-19T00:03:39;101591.08;;;7.51;87.86
55755;BME280;41674;52.290;-1.474;2023-02-19T00:06:09;101594.83;;;7.61;87.34
55755;BME280;41674;52.290;-1.474;2023-02-19T00:08:38;101594.84;;;6.98;90.46
55755;BME280;41674;52.290;-1.474;2023-02-19T00:11:10;101598.40;;;6.88;89.67
55755;BME280;41674;52.290;-1.474;2023-02-19T00:13:38;101600.20;;;6.97;88.58
55755;BME280;41674;52.290;-1.474;2023-02-19T00:16:07;101610.46;;;7.31;87.78
55755;BME280;41674;52.290;-1.474;2023-02-19T00:18:36;101619.24;;;7.29;87.27
55755;BME280;41674;52.290;-1.474;2023-02-19T00:21:06;101625.40;;;6.96;89.60
55755;BME280;41674;52.290;-1.474;2023-02-19T00:23:36;101629.00;;;7.54;86.53
55755;BME280;41674;52.290;-1.474;2023-02-19T00:26:06;101623.84;;;6.80;89.15
55755;BME280;41674;52.290;-1.474;2023-02-19T00:28:35;101625.05;;;6.65;91.81
55755;BME280;41674;52.290;-1.474;2023-02-19T00:31:05;101626.30;;;6.60;92.21
55755;BME280;41674;52.290;-1.474;2023-02-19T00:33:35;101623.01;;;6.76;90.66
55755;BME280;41674;52.290;-1.474;2023-02-19T00:36:05;101621.83;;;6.19;92.61
55755;BME280;41674;52.290;-1.474;2023-02-19T00:38:36;101626.43;;;6.72;90.59
55755;BME280;41674;52.290;-1.474;2023-02-19T00:41:04;101632.30;;;6.17;92.44
55755;BME280;41674;52.290;-1.474;2023-02-19T00:43:32;101638.24;;;6.27;92.64
55755;BME280;41674;52.290;-1.474;2023-02-19T00:46:02;101635.63;;;6.42;91.89
55755;BME280;41674;52.290;-1.474;2023-02-19T00:48:32;101636.72;;;7.00;90.32
55755;BME280;41674;52.290;-1.474;2023-02-19T00:51:02;101641.34;;;6.10;93.28
55755;BME280;41674;52.290;-1.474;2023-02-19T00:53:31;101642.69;;;6.60;92.70
55755;BME280;41674;52.290;-1.474;2023-02-19T00:56:01;101652.46;;;6.34;93.68
55755;BME280;41674;52.290;-1.474;2023-02-19T00:58:31;101653.20;;;6.11;95.27
55755;BME280;41674;52.290;-1.474;2023-02-19T01:01:00;101651.49;;;6.41;94.06
55755;BME280;41674;52.290;-1.474;2023-02-19T01:03:31;101648.09;;;6.30;93.90
55755;BME280;41674;52.290;-1.474;2023-02-19T01:06:00;101648.24;;;6.29;92.52
55755;BME280;41674;52.290;-1.474;2023-02-19T01:08:30;101646.31;;;7.32;88.39
55755;BME280;41674;52.290;-1.474;2023-02-19T01:11:00;101653.21;;;7.58;85.32
55755;BME280;41674;52.290;-1.474;2023-02-19T01:13:29;101653.97;;;7.38;86.33
55755;BME280;41674;52.290;-1.474;2023-02-19T01:16:03;101656.61;;;7.59;85.69
55755;BME280;41674;52.290;-1.474;2023-02-19T01:18:28;101650.59;;;7.39;86.09
55755;BME280;41674;52.290;-1.474;2023-02-19T01:20:57;101652.53;;;7.87;84.22
55755;BME280;41674;52.290;-1.474;2023-02-19T01:23:27;101654.60;;;7.22;85.07
55755;BME280;41674;52.290;-1.474;2023-02-19T01:25:57;101650.63;;;7.81;82.93
55755;BME280;41674;52.290;-1.474;2023-02-19T01:28:26;101655.06;;;7.65;83.36
55755;BME280;41674;52.290;-1.474;2023-02-19T01:31:00;101654.45;;;7.40;85.16
55755;BME280;41674;52.290;-1.474;2023-02-19T01:33:26;101654.59;;;7.48;85.41
55755;BME280;41674;52.290;-1.474;2023-02-19T01:35:56;101653.74;;;7.78;82.73
55755;BME280;41674;52.290;-1.474;2023-02-19T01:38:25;101649.60;;;7.85;81.77
55755;BME280;41674;52.290;-1.474;2023-02-19T01:40:56;101651.92;;;8.31;80.46
55755;BME280;41674;52.290;-1.474;2023-02-19T01:43:25;101658.11;;;7.45;82.84
55755;BME280;41674;52.290;-1.474;2023-02-19T01:45:55;101658.57;;;7.11;84.82
55755;BME280;41674;52.290;-1.474;2023-02-19T01:48:25;101659.00;;;7.27;85.62
55755;BME280;41674;52.290;-1.474;2023-02-19T01:50:56;101661.76;;;7.15;84.75
55755;BME280;41674;52.290;-1.474;2023-02-19T01:53:25;101661.53;;;7.50;83.50
55755;BME280;41674;52.290;-1.474;2023-02-19T01:55:55;101668.35;;;7.62;83.29
55755;BME280;41674;52.290;-1.474;2023-02-19T01:58:23;101669.32;;;6.98;85.77
55755;BME280;41674;52.290;-1.474;2023-02-19T02:00:52;101671.13;;;7.06;85.04
55755;BME280;41674;52.290;-1.474;2023-02-19T02:03:21;101671.98;;;6.83;86.02
55755;BME280;41674;52.290;-1.474;2023-02-19T02:05:55;101679.87;;;6.24;88.86
55755;BME280;41674;52.290;-1.474;2023-02-19T02:08:21;101686.09;;;6.16;91.27
55755;BME280;41674;52.290;-1.474;2023-02-19T02:10:51;101691.50;;;6.44;91.63
55755;BME280;41674;52.290;-1.474;2023-02-19T02:13:20;101698.82;;;6.25;91.20
55755;BME280;41674;52.290;-1.474;2023-02-19T02:15:57;101699.32;;;6.15;91.42
55755;BME280;41674;52.290;-1.474;2023-02-19T02:18:28;101696.79;;;6.10;92.66
55755;BME280;41674;52.290;-1.474;2023-02-19T02:21:05;101689.89;;;5.49;95.61
55755;BME280;41674;52.290;-1.474;2023-02-19T02:23:24;101694.35;;;6.01;96.11
55755;BME280;41674;52.290;-1.474;2023-02-19T02:25:59;101691.04;;;5.73;97.92
55755;BME280;41674;52.290;-1.474;2023-02-19T02:28:32;101699.07;;;5.67;98.19
55755;BME280;41674;52.290;-1.474;2023-02-19T02:30:50;101707.93;;;5.75;97.30
55755;BME280;41674;52.290;-1.474;2023-02-19T02:33:23;101703.12;;;5.79;96.77
55755;BME280;41674;52.290;-1.474;2023-02-19T02:35:50;101708.88;;;6.20;95.15
55755;BME280;41674;52.290;-1.474;2023-02-19T02:38:19;101705.78;;;6.19;94.77
55755;BME280;41674;52.290;-1.474;2023-02-19T02:40:47;101706.98;;;5.89;95.75
55755;BME280;41674;52.290;-1.474;2023-02-19T02:43:16;101713.94;;;5.94;96.80
55755;BME280;41674;52.290;-1.474;2023-02-19T02:45:45;101719.87;;;6.51;92.88
55755;BME280;41674;52.290;-1.474;2023-02-19T02:48:23;101725.35;;;6.37;92.27
55755;BME280;41674;52.290;-1.474;2023-02-19T02:50:49;101720.65;;;6.58;90.22
55755;BME280;41674;52.290;-1.474;2023-02-19T02:53:17;101730.19;;;6.99;86.79
55755;BME280;41674;52.290;-1.474;2023-02-19T02:55:48;101736.65;;;6.90;87.58
55755;BME280;41674;52.290;-1.474;2023-02-19T02:58:15;101737.64;;;7.32;87.02
55755;BME280;41674;52.290;-1.474;2023-02-19T03:00:44;101737.16;;;7.16;87.12
55755;BME280;41674;52.290;-1.474;2023-02-19T03:03:14;101735.62;;;6.89;86.66
55755;BME280;41674;52.290;-1.474;2023-02-19T03:05:43;101738.30;;;7.66;83.73
55755;BME280;41674;52.290;-1.474;2023-02-19T03:08:15;101738.24;;;6.39;89.93
55755;BME280;41674;52.290;-1.474;2023-02-19T03:10:44;101733.12;;;6.57;89.87
55755;BME280;41674;52.290;-1.474;2023-02-19T03:13:15;101739.59;;;5.97;92.78
55755;BME280;41674;52.290;-1.474;2023-02-19T03:15:46;101738.10;;;5.99;93.33
55755;BME280;41674;52.290;-1.474;2023-02-19T03:18:13;101740.80;;;6.58;91.89
55755;BME280;41674;52.290;-1.474;2023-02-19T03:20:45;101749.60;;;6.35;92.27
55755;BME280;41674;52.290;-1.474;2023-02-19T03:23:10;101759.90;;;6.20;93.19
55755;BME280;41674;52.290;-1.474;2023-02-19T03:25:40;101760.60;;;5.97;94.25
55755;BME280;41674;52.290;-1.474;2023-02-19T03:28:11;101753.60;;;7.32;89.04
55755;BME280;41674;52.290;-1.474;2023-02-19T03:30:42;101760.91;;;7.06;88.81
55755;BME280;41674;52.290;-1.474;2023-02-19T03:33:11;101763.53;;;7.49;86.99
55755;BME280;41674;52.290;-1.474;2023-02-19T03:35:42;101776.72;;;7.18;87.57
55755;BME280;41674;52.290;-1.474;2023-02-19T03:38:11;101778.17;;;7.11;86.34
55755;BME280;41674;52.290;-1.474;2023-02-19T03:40:43;101775.82;;;8.00;83.34
55755;BME280;41674;52.290;-1.474;2023-02-19T03:43:14;101773.09;;;7.67;82.39
55755;BME280;41674;52.290;-1.474;2023-02-19T03:45:42;101777.32;;;7.31;85.34
55755;BME280;41674;52.290;-1.474;2023-02-19T03:48:18;101781.21;;;7.60;83.62
55755;BME280;41674;52.290;-1.474;2023-02-19T03:50:42;101788.03;;;6.96;86.63
55755;BME280;41674;52.290;-1.474;2023-02-19T03:53:11;101792.44;;;7.36;85.01
55755;BME280;41674;52.290;-1.474;2023-02-19T03:55:41;101802.51;;;7.37;86.13
55755;BME280;41674;52.290;-1.474;2023-02-19T03:58:11;101803.19;;;7.84;84.92
55755;BME280;41674;52.290;-1.474;2023-02-19T04:00:39;101815.17;;;7.43;84.60
55755;BME280;41674;52.290;-1.474;2023-02-19T04:03:10;101815.28;;;8.40;82.40
55755;BME280;41674;52.290;-1.474;2023-02-19T04:05:38;101817.79;;;8.26;80.96
55755;BME280;41674;52.290;-1.474;2023-02-19T04:08:10;101825.35;;;7.30;84.21
55755;BME280;41674;52.290;-1.474;2023-02-19T04:10:34;101824.03;;;7.22;86.38
55755;BME280;41674;52.290;-1.474;2023-02-19T04:13:08;101826.65;;;7.19;87.05
55755;BME280;41674;52.290;-1.474;2023-02-19T04:15:34;101834.03;;;6.70;88.82
55755;BME280;41674;52.290;-1.474;2023-02-19T04:18:05;101834.99;;;6.88;89.46
55755;BME280;41674;52.290;-1.474;2023-02-19T04:20:37;101835.32;;;6.56;90.46
55755;BME280;41674;52.290;-1.474;2023-02-19T04:23:02;101832.24;;;6.96;88.44
55755;BME280;41674;52.290;-1.474;2023-02-19T04:25:32;101830.31;;;6.87;88.83
55755;BME280;41674;52.290;-1.474;2023-02-19T04:28:01;101829.01;;;6.73;89.64
55755;BME280;41674;52.290;-1.474;2023-02-19T04:30:31;101829.75;;;6.53;90.99
55755;BME280;41674;52.290;-1.474;2023-02-19T04:33:00;101834.46;;;6.70;89.52
55755;BME280;41674;52.290;-1.474;2023-02-19T04:35:30;101842.39;;;6.67;89.75
55755;BME280;41674;52.290;-1.474;2023-02-19T04:38:00;101849.90;;;7.09;87.85
55755;BME280;41674;52.290;-1.474;2023-02-19T04:40:29;101853.81;;;7.57;84.32
55755;BME280;41674;52.290;-1.474;2023-02-19T04:42:59;101848.39;;;8.03;82.65
55755;BME280;41674;52.290;-1.474;2023-02-19T04:45:29;101852.26;;;7.67;82.83
55755;BME280;41674;52.290;-1.474;2023-02-19T04:47:58;101847.41;;;7.63;83.12
55755;BME280;41674;52.290;-1.474;2023-02-19T04:50:28;101848.76;;;7.55;82.42
55755;BME280;41674;52.290;-1.474;2023-02-19T04:52:58;101859.05;;;7.65;82.41
55755;BME280;41674;52.290;-1.474;2023-02-19T04:55:27;101876.37;;;6.88;84.37
55755;BME280;41674;52.290;-1.474;2023-02-19T04:57:57;101885.58;;;7.03;84.58
55755;BME280;41674;52.290;-1.474;2023-02-19T05:00:26;101886.51;;;8.04;84.25
55755;BME280;41674;52.290;-1.474;2023-02-19T05:02:56;101888.57;;;6.91;86.52
55755;BME280;41674;52.290;-1.474;2023-02-19T05:05:26;101883.28;;;7.67;85.56
55755;BME280;41674;52.290;-1.474;2023-02-19T05:07:55;101891.09;;;7.00;86.46
55755;BME280;41674;52.290;-1.474;2023-02-19T05:10:25;101901.19;;;6.26;91.24
55755;BME280;41674;52.290;-1.474;2023-02-19T05:12:55;101917.07;;;5.19;100.00
55755;BME280;41674;52.290;-1.474;2023-02-19T05:15:24;101926.74;;;4.76;100.00
55755;BME280;41674;52.290;-1.474;2023-02-19T05:17:54;101936.55;;;4.64;100.00
55755;BME280;41674;52.290;-1.474;2023-02-19T05:20:24;101951.57;;;4.58;100.00
55755;BME280;41674;52.290;-1.474;2023-02-19T05:22:53;101947.63;;;4.30;100.00
55755;BME280;41674;52.290;-1.474;2023-02-19T05:25:23;101943.77;;;4.33;100.00
55755;BME280;41674;52.290;-1.474;2023-02-19T05:27:53;101945.98;;;4.29;100.00
55755;BME280;41674;52.290;-1.474;2023-02-19T05:30:22;101947.03;;;4.14;100.00
55755;BME280;41674;52.290;-1.474;2023-02-19T05:32:52;101943.15;;;4.36;100.00
55755;BME280;41674;52.290;-1.474;2023-02-19T05:35:22;101941.28;;;3.96;100.00
55755;BME280;41674;52.290;-1.474;2023-02-19T05:37:52;101951.62;;;4.12;100.00
55755;BME280;41674;52.290;-1.474;2023-02-19T05:40:21;101962.04;;;4.18;100.00
55755;BME280;41674;52.290;-1.474;2023-02-19T05:42:51;101970.55;;;4.02;100.00
55755;BME280;41674;52.290;-1.474;2023-02-19T05:45:20;101974.34;;;4.04;100.00
55755;BME280;41674;52.290;-1.474;2023-02-19T05:47:50;101970.29;;;3.90;100.00
55755;BME280;41674;52.290;-1.474;2023-02-19T05:50:20;101973.87;;;4.22;100.00
55755;BME280;41674;52.290;-1.474;2023-02-19T05:52:50;101985.43;;;4.19;100.00
55755;BME280;41674;52.290;-1.474;2023-02-19T05:55:19;101994.62;;;3.83;100.00
55755;BME280;41674;52.290;-1.474;2023-02-19T05:57:49;102007.91;;;4.20;100.00
55755;BME280;41674;52.290;-1.474;2023-02-19T06:00:19;102009.10;;;4.12;100.00
55755;BME280;41674;52.290;-1.474;2023-02-19T06:02:48;101998.83;;;4.10;100.00
55755;BME280;41674;52.290;-1.474;2023-02-19T06:05:18;101991.95;;;4.28;100.00
55755;BME280;41674;52.290;-1.474;2023-02-19T06:07:47;101985.48;;;4.22;100.00
55755;BME280;41674;52.290;-1.474;2023-02-19T06:10:17;101992.25;;;4.53;99.12
55755;BME280;41674;52.290;-1.474;2023-02-19T06:12:47;101990.23;;;4.61;98.04
55755;BME280;41674;52.290;-1.474;2023-02-19T06:15:16;101994.46;;;4.24;99.91
55755;BME280;41674;52.290;-1.474;2023-02-19T06:17:46;101996.27;;;4.62;97.99
55755;BME280;41674;52.290;-1.474;2023-02-19T06:20:16;101996.80;;;4.46;100.00
55755;BME280;41674;52.290;-1.474;2023-02-19T06:22:45;102004.73;;;4.17;100.00
55755;BME280;41674;52.290;-1.474;2023-02-19T06:25:15;102008.81;;;4.39;99.00
55755;BME280;41674;52.290;-1.474;2023-02-19T06:27:45;102013.42;;;4.54;97.43
55755;BME280;41674;52.290;-1.474;2023-02-19T06:30:14;102015.25;;;4.43;98.82
55755;BME280;41674;52.290;-1.474;2023-02-19T06:32:44;102017.17;;;4.03;100.00
55755;BME280;41674;52.290;-1.474;2023-02-19T06:35:14;102015.18;;;3.73;100.00
55755;BME280;41674;52.290;-1.474;2023-02-19T06:37:45;102013.46;;;4.06;100.00
55755;BME280;41674;52.290;-1.474;2023-02-19T06:40:13;102012.40;;;3.92;100.00
55755;BME280;41674;52.290;-1.474;2023-02-19T06:42:43;102016.06;;;3.88;100.00
55755;BME280;41674;52.290;-1.474;2023-02-19T06:45:12;102011.49;;;4.39;98.55
55755;BME280;41674;52.290;-1.474;2023-02-19T06:47:42;102007.27;;;4.24;98.72
55755;BME280;41674;52.290;-1.474;2023-02-19T06:50:12;102015.44;;;4.51;96.92
55755;BME280;41674;52.290;-1.474;2023-02-19T06:52:41;102023.72;;;4.13;98.38
55755;BME280;41674;52.290;-1.474;2023-02-19T06:55:11;102027.62;;;4.39;96.64
55755;BME280;41674;52.290;-1.474;2023-02-19T06:57:41;102023.40;;;4.30;97.55
55755;BME280;41674;52.290;-1.474;2023-02-19T07:00:11;102041.62;;;4.44;97.65
55755;BME280;41674;52.290;-1.474;2023-02-19T07:02:40;102041.12;;;4.01;99.33
55755;BME280;41674;52.290;-1.474;2023-02-19T07:05:10;102041.23;;;4.17;99.06
55755;BME280;41674;52.290;-1.474;2023-02-19T07:07:40;102039.21;;;4.53;96.77
55755;BME280;41674;52.290;-1.474;2023-02-19T07:10:09;102045.08;;;5.19;93.82
55755;BME280;41674;52.290;-1.474;2023-02-19T07:12:39;102055.12;;;4.98;92.65
55755;BME280;41674;52.290;-1.474;2023-02-19T07:15:09;102046.95;;;5.40;90.01
55755;BME280;41674;52.290;-1.474;2023-02-19T07:17:38;102055.79;;;5.20;90.94
55755;BME280;41674;52.290;-1.474;2023-02-19T07:20:08;102067.12;;;5.13;91.86
55755;BME280;41674;52.290;-1.474;2023-02-19T07:22:37;102071.20;;;5.12;93.48
55755;BME280;41674;52.290;-1.474;2023-02-19T07:25:07;102063.55;;;4.54;95.20
55755;BME280;41674;52.290;-1.474;2023-02-19T07:27:37;102062.88;;;4.26;98.69
55755;BME280;41674;52.290;-1.474;2023-02-19T07:30:07;102072.21;;;4.02;99.03
55755;BME280;41674;52.290;-1.474;2023-02-19T07:32:40;102103.31;;;4.14;99.34
55755;BME280;41674;52.290;-1.474;2023-02-19T07:35:06;102103.85;;;4.14;97.51
55755;BME280;41674;52.290;-1.474;2023-02-19T07:37:36;102114.99;;;3.88;98.02
55755;BME280;41674;52.290;-1.474;2023-02-19T07:40:06;102125.73;;;4.27;96.29
55755;BME280;41674;52.290;-1.474;2023-02-19T07:42:35;102136.05;;;4.12;98.80
55755;BME280;41674;52.290;-1.474;2023-02-19T07:45:05;102142.22;;;4.06;98.57
55755;BME280;41674;52.290;-1.474;2023-02-19T07:47:34;102143.68;;;3.95;97.24
55755;BME280;41674;52.290;-1.474;2023-02-19T07:50:04;102142.90;;;4.00;95.88
55755;BME280;41674;52.290;-1.474;2023-02-19T07:52:34;102153.85;;;4.65;94.38
55755;BME280;41674;52.290;-1.474;2023-02-19T07:55:04;102160.01;;;5.11;91.66
55755;BME280;41674;52.290;-1.474;2023-02-19T07:57:33;102144.99;;;4.84;89.95
55755;BME280;41674;52.290;-1.474;2023-02-19T08:00:03;102130.52;;;5.73;87.06
55755;BME280;41674;52.290;-1.474;2023-02-19T08:02:32;102122.31;;;5.84;84.23
55755;BME280;41674;52.290;-1.474;2023-02-19T08:05:03;102114.41;;;6.16;81.94
55755;BME280;41674;52.290;-1.474;2023-02-19T08:07:37;102122.40;;;5.35;84.23
55755;BME280;41674;52.290;-1.474;2023-02-19T08:10:03;102120.88;;;5.78;86.46
55755;BME280;41674;52.290;-1.474;2023-02-19T08:12:31;102129.74;;;5.19;88.86
55755;BME280;41674;52.290;-1.474;2023-02-19T08:15:01;102121.23;;;4.90;89.05
55755;BME280;41674;52.290;-1.474;2023-02-19T08:17:35;102123.48;;;4.57;90.94
55755;BME280;41674;52.290;-1.474;2023-02-19T08:20:00;102124.08;;;5.12;88.89
55755;BME280;41674;52.290;-1.474;2023-02-19T08:22:30;102117.12;;;5.07;88.72
55755;BME280;41674;52.290;-1.474;2023-02-19T08:24:59;102120.31;;;5.23;87.05
55755;BME280;41674;52.290;-1.474;2023-02-19T08:27:29;102122.93;;;5.09;89.42
55755;BME280;41674;52.290;-1.474;2023-02-19T08:29:59;102128.09;;;4.65;91.31
55755;BME280;41674;52.290;-1.474;2023-02-19T08:32:28;102126.19;;;4.44;93.57
55755;BME280;41674;52.290;-1.474;2023-02-19T08:34:58;102125.01;;;4.63;93.18
55755;BME280;41674;52.290;-1.474;2023-02-19T08:37:35;102132.18;;;4.88;93.98
55755;BME280;41674;52.290;-1.474;2023-02-19T08:39:58;102132.86;;;4.84;93.25
55755;BME280;41674;52.290;-1.474;2023-02-19T08:42:28;102142.57;;;5.38;91.93
55755;BME280;41674;52.290;-1.474;2023-02-19T08:44:57;102146.56;;;5.93;88.14
55755;BME280;41674;52.290;-1.474;2023-02-19T08:47:27;102145.83;;;5.90;87.83
55755;BME280;41674;52.290;-1.474;2023-02-19T08:49:56;102142.16;;;6.13;87.71
55755;BME280;41674;52.290;-1.474;2023-02-19T08:52:27;102138.97;;;6.05;87.93
55755;BME280;41674;52.290;-1.474;2023-02-19T08:54:55;102131.50;;;5.74;89.75
55755;BME280;41674;52.290;-1.474;2023-02-19T08:57:26;102136.76;;;5.18;92.90
55755;BME280;41674;52.290;-1.474;2023-02-19T08:59:55;102143.48;;;5.48;92.13
55755;BME280;41674;52.290;-1.474;2023-02-19T09:02:24;102160.84;;;4.83;95.55
55755;BME280;41674;52.290;-1.474;2023-02-19T09:04:54;102173.83;;;5.33;92.48
55755;BME280;41674;52.290;-1.474;2023-02-19T09:07:24;102187.52;;;5.51;92.47
55755;BME280;41674;52.290;-1.474;2023-02-19T09:09:54;102193.75;;;5.51;93.01
55755;BME280;41674;52.290;-1.474;2023-02-19T09:12:24;102191.75;;;5.88;89.92
55755;BME280;41674;52.290;-1.474;2023-02-19T09:14:53;102201.38;;;5.50;90.99
55755;BME280;41674;52.290;-1.474;2023-02-19T09:17:23;102196.83;;;5.73;91.47
55755;BME280;41674;52.290;-1.474;2023-02-19T09:19:52;102195.14;;;5.33;91.89
55755;BME280;41674;52.290;-1.474;2023-02-19T09:22:22;102189.57;;;5.94;91.05
55755;BME280;41674;52.290;-1.474;2023-02-19T09:24:51;102186.64;;;6.04;90.63
55755;BME280;41674;52.290;-1.474;2023-02-19T09:27:21;102192.38;;;5.94;89.88
55755;BME280;41674;52.290;-1.474;2023-02-19T09:29:51;102186.38;;;5.79;91.49
55755;BME280;41674;52.290;-1.474;2023-02-19T09:32:21;102191.85;;;5.77;90.42
55755;BME280;41674;52.290;-1.474;2023-02-19T09:34:51;102189.19;;;5.86;89.59
55755;BME280;41674;52.290;-1.474;2023-02-19T09:37:24;102200.16;;;5.87;89.86
55755;BME280;41674;52.290;-1.474;2023-02-19T09:39:49;102204.68;;;5.80;90.15
55755;BME280;41674;52.290;-1.474;2023-02-19T09:42:22;102205.82;;;5.58;89.85
55755;BME280;41674;52.290;-1.474;2023-02-19T09:44:53;102206.22;;;6.04;91.56
55755;BME280;41674;52.290;-1.474;2023-02-19T09:47:21;102207.67;;;6.24;89.71
55755;BME280;41674;52.290;-1.474;2023-02-19T09:49:50;102212.26;;;6.08;88.63
55755;BME280;41674;52.290;-1.474;2023-02-19T09:52:24;102208.86;;;6.36;87.75
55755;BME280;41674;52.290;-1.474;2023-02-19T09:54:47;102213.89;;;6.40;87.53
55755;BME280;41674;52.290;-1.474;2023-02-19T09:57:20;102212.69;;;5.91;88.77
55755;BME280;41674;52.290;-1.474;2023-02-19T09:59:49;102222.96;;;6.22;85.61
55755;BME280;41674;52.290;-1.474;2023-02-19T10:02:18;102226.85;;;7.24;82.70
55755;BME280;41674;52.290;-1.474;2023-02-19T10:04:48;102239.09;;;6.97;82.55
55755;BME280;41674;52.290;-1.474;2023-02-19T10:07:18;102237.41;;;7.02;83.66
55755;BME280;41674;52.290;-1.474;2023-02-19T10:09:50;102244.74;;;6.76;82.25
55755;BME280;41674;52.290;-1.474;2023-02-19T10:12:19;102242.13;;;7.44;81.67
55755;BME280;41674;52.290;-1.474;2023-02-19T10:14:48;102236.67;;;7.53;81.99
55755;BME280;41674;52.290;-1.474;2023-02-19T10:17:22;102231.73;;;7.88;80.08
55755;BME280;41674;52.290;-1.474;2023-02-19T10:19:45;102240.49;;;7.66;79.95
55755;BME280;41674;52.290;-1.474;2023-02-19T10:22:14;102240.47;;;8.03;79.51
55755;BME280;41674;52.290;-1.474;2023-02-19T10:24:44;102248.11;;;7.49;80.99
55755;BME280;41674;52.290;-1.474;2023-02-19T10:27:14;102236.49;;;8.41;78.42
55755;BME280;41674;52.290;-1.474;2023-02-19T10:29:43;102239.90;;;8.16;76.72
55755;BME280;41674;52.290;-1.474;2023-02-19T10:32:15;102249.29;;;8.09;77.44
55755;BME280;41674;52.290;-1.474;2023-02-19T10:34:42;102248.81;;;8.46;76.83
55755;BME280;41674;52.290;-1.474;2023-02-19T10:37:14;102254.61;;;7.76;77.95
55755;BME280;41674;52.290;-1.474;2023-02-19T10:39:43;102252.80;;;7.57;81.33
55755;BME280;41674;52.290;-1.474;2023-02-19T10:42:18;102250.44;;;7.84;80.24
55755;BME280;41674;52.290;-1.474;2023-02-19T10:44:43;102241.26;;;8.33;78.88
55755;BME280;41674;52.290;-1.474;2023-02-19T10:47:16;102242.52;;;8.44;79.79
55755;BME280;41674;52.290;-1.474;2023-02-19T10:49:40;102239.95;;;8.50;78.84
55755;BME280;41674;52.290;-1.474;2023-02-19T10:52:13;102233.62;;;7.84;81.53
55755;BME280;41674;52.290;-1.474;2023-02-19T10:54:39;102233.18;;;7.91;80.55
55755;BME280;41674;52.290;-1.474;2023-02-19T10:57:25;102236.24;;;7.47;84.88
55755;BME280;41674;52.290;-1.474;2023-02-19T11:02:15;102227.56;;;7.78;80.34
55755;BME280;41674;52.290;-1.474;2023-02-19T11:04:38;102225.95;;;8.33;78.46
55755;BME280;41674;52.290;-1.474;2023-02-19T11:07:08;102226.23;;;8.49;75.20
55755;BME280;41674;52.290;-1.474;2023-02-19T11:09:38;102214.07;;;8.19;77.61
55755;BME280;41674;52.290;-1.474;2023-02-19T11:12:07;102216.37;;;8.67;75.85
55755;BME280;41674;52.290;-1.474;2023-02-19T11:14:36;102216.30;;;8.59;75.80
55755;BME280;41674;52.290;-1.474;2023-02-19T11:17:06;102218.09;;;9.10;75.66
55755;BME280;41674;52.290;-1.474;2023-02-19T11:19:38;102216.64;;;9.52;74.37
55755;BME280;41674;52.290;-1.474;2023-02-19T11:22:19;102213.13;;;10.03;71.88
55755;BME280;41674;52.290;-1.474;2023-02-19T11:24:36;102213.14;;;10.03;71.86
55755;BME280;41674;52.290;-1.474;2023-02-19T11:27:12;102221.12;;;9.06;74.61
55755;BME280;41674;52.290;-1.474;2023-02-19T11:29:34;102224.95;;;8.89;77.19
55755;BME280;41674;52.290;-1.474;2023-02-19T11:32:23;102223.28;;;8.90;77.33
55755;BME280;41674;52.290;-1.474;2023-02-19T11:34:33;102226.30;;;7.95;80.40
55755;BME280;41674;52.290;-1.474;2023-02-19T11:37:10;102222.68;;;8.12;80.35
55755;BME280;41674;52.290;-1.474;2023-02-19T11:39:32;102220.98;;;8.37;80.50
55755;BME280;41674;52.290;-1.474;2023-02-19T11:42:12;102218.63;;;8.15;79.53
55755;BME280;41674;52.290;-1.474;2023-02-19T11:44:43;102217.16;;;8.28;79.76
55755;BME280;41674;52.290;-1.474;2023-02-19T11:49:39;102199.07;;;8.15;81.40
55755;BME280;41674;52.290;-1.474;2023-02-19T11:52:11;102194.80;;;8.76;82.05
55755;BME280;41674;52.290;-1.474;2023-02-19T11:54:43;102185.72;;;8.16;79.55
55755;BME280;41674;52.290;-1.474;2023-02-19T11:57:08;102189.12;;;8.04;80.77
55755;BME280;41674;52.290;-1.474;2023-02-19T11:59:34;102177.78;;;8.52;80.22
55755;BME280;41674;52.290;-1.474;2023-02-19T12:07:05;102173.62;;;9.38;74.34
55755;BME280;41674;52.290;-1.474;2023-02-19T12:09:41;102170.01;;;9.66;73.80
55755;BME280;41674;52.290;-1.474;2023-02-19T12:12:07;102168.66;;;10.36;70.67
55755;BME280;41674;52.290;-1.474;2023-02-19T12:14:45;102161.23;;;10.22;68.72
55755;BME280;41674;52.290;-1.474;2023-02-19T12:17:02;102153.63;;;10.06;70.69
55755;BME280;41674;52.290;-1.474;2023-02-19T12:19:40;102146.48;;;10.18;70.63
55755;BME280;41674;52.290;-1.474;2023-02-19T12:22:10;102142.55;;;10.03;69.45
55755;BME280;41674;52.290;-1.474;2023-02-19T12:24:44;102151.46;;;8.94;71.88
55755;BME280;41674;52.290;-1.474;2023-02-19T12:27:07;102155.13;;;8.95;72.45
55755;BME280;41674;52.290;-1.474;2023-02-19T12:29:37;102159.05;;;8.74;73.18
55755;BME280;41674;52.290;-1.474;2023-02-19T12:32:04;102158.51;;;7.90;76.46
55755;BME280;41674;52.290;-1.474;2023-02-19T12:34:34;102155.39;;;8.99;75.32
55755;BME280;41674;52.290;-1.474;2023-02-19T12:37:05;102154.24;;;9.26;71.10
55755;BME280;41674;52.290;-1.474;2023-02-19T12:39:29;102157.73;;;9.09;70.23
55755;BME280;41674;52.290;-1.474;2023-02-19T12:41:58;102153.23;;;9.99;68.52
55755;BME280;41674;52.290;-1.474;2023-02-19T12:44:27;102161.24;;;9.43;69.39
55755;BME280;41674;52.290;-1.474;2023-02-19T12:46:55;102155.75;;;9.44;69.22
55755;BME280;41674;52.290;-1.474;2023-02-19T12:49:27;102159.88;;;9.16;71.11
55755;BME280;41674;52.290;-1.474;2023-02-19T12:51:55;102158.66;;;9.79;71.07
55755;BME280;41674;52.290;-1.474;2023-02-19T12:54:25;102147.83;;;11.34;66.38
55755;BME280;41674;52.290;-1.474;2023-02-19T12:56:55;102124.34;;;11.79;63.40
55755;BME280;41674;52.290;-1.474;2023-02-19T12:59:25;102109.23;;;11.99;61.98
55755;BME280;41674;52.290;-1.474;2023-02-19T13:01:54;102104.35;;;12.59;59.61
55755;BME280;41674;52.290;-1.474;2023-02-19T13:04:28;102112.45;;;12.62;59.07
55755;BME280;41674;52.290;-1.474;2023-02-19T13:06:53;102109.46;;;11.86;60.75
55755;BME280;41674;52.290;-1.474;2023-02-19T13:09:22;102107.75;;;13.06;59.36